Time;durP1;ratioP1;P1;durP2;ratioP2;P2;SDS_P1;SDS_P2;PMS_P1;PMS_P2;Temp;Humidity;BMP_temperature;BMP_pressure;BME280_temperature;BME280_humidity;BME280_pressure;Samples;Min_cycle;Max_cycle;Signal;HPM_P1;HPM_P2
2021/09/16 00:00:59;;;;;;;28.90;18.25;;;;;;;18.09;100.00;100303.50;6367746;23;20229;-78
2021/09/16 00:03:30;;;;;;;29.45;18.75;;;;;;;18.14;100.00;100311.13;6369063;23;20005;-78
2021/09/16 00:06:00;;;;;;;27.02;17.85;;;;;;;18.00;100.00;100295.38;6368555;23;20021;-78
2021/09/16 00:08:30;;;;;;;25.55;17.48;;;;;;;18.03;100.00;100303.91;6367742;23;20013;-78
2021/09/16 00:11:01;;;;;;;27.95;18.10;;;;;;;18.12;100.00;100310.38;6368737;23;20163;-78
2021/09/16 00:13:31;;;;;;;26.65;17.35;;;;;;;18.11;100.00;100309.53;6368147;23;20534;-78
2021/09/16 00:16:01;;;;;;;27.58;16.92;;;;;;;17.91;100.00;100307.44;6368639;23;20069;-78
2021/09/16 00:18:32;;;;;;;24.23;16.25;;;;;;;18.06;100.00;100308.16;6368492;23;20008;-78
2021/09/16 00:21:02;;;;;;;22.70;16.08;;;;;;;18.07;100.00;100312.50;6369001;23;20008;-77
2021/09/16 00:23:33;;;;;;;23.13;15.88;;;;;;;18.01;100.00;100315.56;6368689;23;20341;-78
2021/09/16 00:26:03;;;;;;;24.27;16.00;;;;;;;17.95;100.00;100314.19;6367638;23;20006;-78
2021/09/16 00:28:33;;;;;;;22.15;14.82;;;;;;;17.94;100.00;100309.88;6369014;23;20044;-78
2021/09/16 00:31:04;;;;;;;23.25;16.20;;;;;;;17.91;100.00;100318.03;6368811;23;20028;-78
2021/09/16 00:33:34;;;;;;;23.90;16.27;;;;;;;18.01;100.00;100318.22;6362487;23;20006;-78
2021/09/16 00:36:04;;;;;;;23.73;16.33;;;;;;;18.01;100.00;100318.22;6368426;23;20001;-78
2021/09/16 00:38:35;;;;;;;22.38;15.18;;;;;;;17.89;100.00;100319.06;6368181;23;20069;-78
2021/09/16 00:41:05;;;;;;;24.65;16.10;;;;;;;17.78;100.00;100317.16;6368563;23;20009;-78
2021/09/16 00:43:36;;;;;;;21.40;14.77;;;;;;;17.76;100.00;100323.50;6368217;23;20023;-78
2021/09/16 00:46:06;;;;;;;23.02;14.55;;;;;;;17.72;100.00;100324.69;6368448;23;20001;-78
2021/09/16 00:48:36;;;;;;;22.92;14.02;;;;;;;17.66;100.00;100328.56;6460928;22;20051;-78
2021/09/16 00:51:07;;;;;;;20.93;13.13;;;;;;;17.65;100.00;100320.78;6368852;23;20009;-78
2021/09/16 00:53:39;;;;;;;23.90;12.48;;;;;;;17.78;100.00;100325.09;6368494;23;20240;-78
2021/09/16 00:56:11;;;;;;;21.00;12.70;;;;;;;17.76;100.00;100332.28;6357520;23;20027;-78
2021/09/16 00:58:42;;;;;;;19.52;12.05;;;;;;;17.70;100.00;100323.94;6368318;23;20077;-78
2021/09/16 01:01:12;;;;;;;18.02;11.15;;;;;;;17.84;100.00;100323.84;6368125;23;20029;-78
2021/09/16 01:03:43;;;;;;;16.48;10.32;;;;;;;17.71;100.00;100336.19;6368313;23;20085;-78
2021/09/16 01:06:16;;;;;;;16.23;10.52;;;;;;;17.79;100.00;100326.78;6367669;23;20005;-78
2021/09/16 01:08:47;;;;;;;17.85;10.95;;;;;;;17.67;100.00;100324.97;6367986;22;20008;-78
2021/09/16 01:11:19;;;;;;;14.48;10.27;;;;;;;17.68;100.00;100320.56;6368323;23;20157;-78
2021/09/16 01:13:50;;;;;;;17.52;10.02;;;;;;;17.63;100.00;100322.69;6367499;23;20005;-78
2021/09/16 01:16:20;;;;;;;14.82;10.43;;;;;;;17.62;100.00;100328.91;6368916;23;20028;-78
2021/09/16 01:18:50;;;;;;;15.05;10.20;;;;;;;17.52;100.00;100330.47;6368847;23;20477;-78
2021/09/16 01:21:21;;;;;;;14.30;9.50;;;;;;;17.46;100.00;100339.66;6368750;23;20032;-78
2021/09/16 01:23:51;;;;;;;14.88;9.48;;;;;;;17.44;100.00;100338.91;6367397;23;20287;-78
2021/09/16 01:26:21;;;;;;;14.73;9.43;;;;;;;17.39;100.00;100330.47;6368741;23;20009;-78
2021/09/16 01:28:52;;;;;;;17.40;9.80;;;;;;;17.37;100.00;100337.66;6368284;23;20253;-78
2021/09/16 01:31:41;;;;;;;15.38;9.10;;;;;;;17.47;100.00;100338.72;6369166;23;20225;-78
2021/09/16 01:34:13;;;;;;;10.75;8.48;;;;;;;17.49;100.00;100342.09;6367986;23;20337;-78
2021/09/16 01:36:45;;;;;;;12.20;8.35;;;;;;;17.48;100.00;100337.75;6368206;23;20574;-78
2021/09/16 01:39:17;;;;;;;10.50;8.10;;;;;;;17.40;100.00;100334.81;6368505;23;20039;-78
2021/09/16 01:41:48;;;;;;;10.52;7.50;;;;;;;17.46;100.00;100341.47;6365707;23;20028;-78
2021/09/16 01:44:19;;;;;;;9.35;7.10;;;;;;;17.52;100.00;100341.06;6368037;23;20006;-78
2021/09/16 01:46:49;;;;;;;9.73;6.88;;;;;;;17.39;100.00;100350.75;6368774;23;20499;-78
2021/09/16 01:49:19;;;;;;;11.90;7.27;;;;;;;17.37;100.00;100342.06;6368503;23;20015;-78
2021/09/16 01:51:49;;;;;;;9.30;6.53;;;;;;;17.51;100.00;100344.63;6368273;23;20237;-78
2021/09/16 01:54:21;;;;;;;10.53;6.57;;;;;;;17.47;100.00;100337.88;6367334;23;20615;-78
2021/09/16 01:56:51;;;;;;;8.65;5.72;;;;;;;17.50;100.00;100348.25;6368378;23;20257;-78
2021/09/16 01:59:22;;;;;;;7.45;5.07;;;;;;;17.40;100.00;100347.16;6367940;23;20005;-78
2021/09/16 02:01:52;;;;;;;8.80;5.25;;;;;;;17.27;100.00;100343.59;6368330;23;20399;-78
2021/09/16 02:04:22;;;;;;;7.07;5.00;;;;;;;17.35;100.00;100349.25;6367466;23;20005;-78
2021/09/16 02:06:53;;;;;;;8.73;5.22;;;;;;;17.35;100.00;100343.97;6461015;22;20240;-78
2021/09/16 02:09:23;;;;;;;7.18;4.80;;;;;;;17.37;100.00;100337.66;6368297;23;20008;-78
2021/09/16 02:11:53;;;;;;;9.23;4.53;;;;;;;17.32;100.00;100344.16;6368027;23;20001;-78
2021/09/16 02:14:23;;;;;;;7.60;4.67;;;;;;;17.47;100.00;100343.16;6368210;23;20324;-78
2021/09/16 02:16:54;;;;;;;6.93;4.20;;;;;;;17.28;100.00;100340.03;6368232;23;20565;-78
2021/09/16 02:19:24;;;;;;;6.28;4.40;;;;;;;17.15;100.00;100344.44;6368906;23;20000;-78
2021/09/16 02:21:54;;;;;;;6.90;4.40;;;;;;;17.03;100.00;100345.22;6368640;23;20001;-78
2021/09/16 02:24:24;;;;;;;7.87;4.70;;;;;;;17.04;100.00;100344.28;6367542;23;20001;-78
2021/09/16 02:26:55;;;;;;;7.78;4.30;;;;;;;17.20;100.00;100352.88;6368817;23;20598;-78
2021/09/16 02:29:25;;;;;;;7.03;4.20;;;;;;;17.23;100.00;100350.91;6368009;23;20076;-78
2021/09/16 02:31:56;;;;;;;6.67;4.27;;;;;;;17.23;100.00;100356.19;6368756;23;20234;-78
2021/09/16 02:34:26;;;;;;;5.32;3.90;;;;;;;17.29;100.00;100350.47;6367806;23;20745;-78
2021/09/16 02:36:56;;;;;;;8.20;4.30;;;;;;;17.27;100.00;100346.22;6368404;23;20062;-78
2021/09/16 02:39:26;;;;;;;6.73;4.63;;;;;;;17.18;100.00;100350.34;6368012;23;20002;-78
2021/09/16 02:41:57;;;;;;;6.50;4.10;;;;;;;17.21;100.00;100349.28;6367499;23;20976;-78
2021/09/16 02:44:27;;;;;;;6.23;4.07;;;;;;;17.19;100.00;100356.47;6367656;23;20692;-78
2021/09/16 02:46:57;;;;;;;5.70;4.07;;;;;;;17.22;100.00;100358.91;6368347;23;20327;-78
2021/09/16 02:49:27;;;;;;;5.97;3.75;;;;;;;17.02;100.00;100368.16;6368012;23;20249;-78
2021/09/16 02:51:58;;;;;;;6.73;3.87;;;;;;;16.99;100.00;100370.97;6368446;23;20013;-78
2021/09/16 02:54:28;;;;;;;6.60;3.83;;;;;;;17.06;100.00;100366.13;6367575;23;20738;-78
2021/09/16 02:56:58;;;;;;;6.63;3.72;;;;;;;17.24;100.00;100367.56;6366687;23;20436;-78
2021/09/16 02:59:28;;;;;;;7.80;3.60;;;;;;;17.07;100.00;100365.19;6367137;23;20001;-78
2021/09/16 03:01:59;;;;;;;6.63;3.47;;;;;;;17.06;100.00;100355.56;6367365;23;20010;-78
2021/09/16 03:04:29;;;;;;;9.18;3.53;;;;;;;17.13;100.00;100362.16;6367194;23;20234;-78
2021/09/16 03:07:00;;;;;;;5.90;3.65;;;;;;;17.04;100.00;100363.63;6367653;23;20001;-78
2021/09/16 03:09:31;;;;;;;6.88;3.47;;;;;;;17.11;100.00;100364.06;6367376;23;20474;-78
2021/09/16 03:12:01;;;;;;;7.03;2.97;;;;;;;17.09;100.00;100363.28;6367959;23;20013;-78
2021/09/16 03:14:31;;;;;;;6.30;3.33;;;;;;;17.06;100.00;100359.09;6367810;23;20297;-78
2021/09/16 03:17:01;;;;;;;8.90;3.58;;;;;;;17.12;100.00;100357.84;6367964;23;20058;-78
2021/09/16 03:19:32;;;;;;;5.45;3.38;;;;;;;17.15;100.00;100362.91;6368053;23;20088;-78
2021/09/16 03:22:02;;;;;;;5.97;3.28;;;;;;;17.23;100.00;100368.53;6367734;23;20044;-78
2021/09/16 03:24:32;;;;;;;5.78;3.03;;;;;;;17.06;100.00;100369.66;6367467;23;20088;-78
2021/09/16 03:27:03;;;;;;;6.35;3.30;;;;;;;17.08;100.00;100365.09;6367687;23;20048;-78
2021/09/16 03:29:33;;;;;;;6.05;3.10;;;;;;;17.06;100.00;100379.34;6367405;23;20011;-78
2021/09/16 03:32:04;;;;;;;6.93;3.65;;;;;;;16.92;100.00;100379.38;6459443;22;20005;-78
2021/09/16 03:34:34;;;;;;;6.50;3.20;;;;;;;16.86;100.00;100372.72;6366198;23;20001;-78
2021/09/16 03:37:05;;;;;;;4.85;3.45;;;;;;;16.99;100.00;100368.34;6368060;23;20013;-78
2021/09/16 03:39:35;;;;;;;4.90;3.03;;;;;;;16.94;100.00;100374.88;6368623;23;20002;-78
2021/09/16 03:42:05;;;;;;;6.25;2.92;;;;;;;16.94;100.00;100380.16;6368580;23;20083;-77
2021/09/16 03:44:36;;;;;;;5.30;2.42;;;;;;;16.92;100.00;100392.59;6367063;23;20010;-79
2021/09/16 03:47:07;;;;;;;5.13;2.80;;;;;;;16.92;100.00;100387.31;6368069;23;20002;-78
2021/09/16 03:49:40;;;;;;;3.60;2.53;;;;;;;16.95;100.00;100395.06;6364408;23;20063;-78
2021/09/16 03:52:11;;;;;;;3.78;2.40;;;;;;;16.92;100.00;100389.94;6369223;23;20368;-78
2021/09/16 03:54:41;;;;;;;5.07;2.38;;;;;;;16.94;100.00;100396.84;6467432;22;20037;-79
2021/09/16 03:57:11;;;;;;;3.28;1.80;;;;;;;16.86;100.00;100393.84;6375250;23;20444;-78
2021/09/16 03:59:41;;;;;;;5.07;1.70;;;;;;;16.92;100.00;100400.50;6467010;22;20001;-77
2021/09/16 04:02:12;;;;;;;3.22;1.50;;;;;;;16.95;100.00;100400.34;6466904;22;20031;-77
2021/09/16 04:04:42;;;;;;;3.35;1.02;;;;;;;16.82;100.00;100402.06;6374027;23;20407;-79
2021/09/16 04:07:12;;;;;;;2.88;1.20;;;;;;;16.69;100.00;100397.66;6467864;22;20004;-79
2021/09/16 04:09:43;;;;;;;2.47;0.80;;;;;;;16.77;100.00;100398.88;6376208;23;19997;-79
2021/09/16 04:12:13;;;;;;;2.00;1.08;;;;;;;16.72;100.00;100400.94;6468305;22;20005;-78
2021/09/16 04:14:43;;;;;;;1.88;0.90;;;;;;;16.55;100.00;100406.41;6374504;23;20005;-78
2021/09/16 04:17:13;;;;;;;2.70;1.00;;;;;;;16.59;100.00;100412.38;6469172;22;20059;-79
2021/09/16 04:19:44;;;;;;;1.50;1.00;;;;;;;16.55;100.00;100403.78;6375718;23;19998;-78
2021/09/16 04:22:14;;;;;;;1.85;1.00;;;;;;;16.59;100.00;100412.38;6469095;22;20032;-77
2021/09/16 04:24:44;;;;;;;3.20;1.20;;;;;;;16.56;100.00;100405.47;6375911;23;19997;-78
2021/09/16 04:27:15;;;;;;;1.73;0.98;;;;;;;16.51;100.00;100418.13;6469503;22;20008;-79
2021/09/16 04:29:45;;;;;;;3.58;1.10;;;;;;;16.44;100.00;100422.09;6469351;22;19998;-79
2021/09/16 04:32:15;;;;;;;2.85;1.00;;;;;;;16.43;100.00;100419.53;6468644;22;20031;-79
2021/09/16 04:34:46;;;;;;;2.53;0.90;;;;;;;16.41;100.00;100416.97;6374129;23;20027;-79
2021/09/16 04:37:17;;;;;;;2.30;0.80;;;;;;;16.39;100.00;100418.03;6469850;22;20448;-79
2021/09/16 04:39:47;;;;;;;1.58;0.55;;;;;;;16.35;100.00;100419.19;6376622;23;20008;-78
2021/09/16 04:42:17;;;;;;;3.20;0.77;;;;;;;16.32;100.00;100422.81;6376927;23;20481;-77
2021/09/16 04:44:47;;;;;;;2.67;0.60;;;;;;;16.14;100.00;100420.44;6375010;23;20088;-79
2021/09/16 04:47:18;;;;;;;2.72;0.60;;;;;;;16.07;100.00;100427.03;6467818;22;20001;-79
2021/09/16 04:49:48;;;;;;;1.77;0.70;;;;;;;16.23;100.00;100433.06;6468676;22;20009;-79
2021/09/16 04:52:19;;;;;;;2.30;0.57;;;;;;;16.21;100.00;100427.88;6467965;22;20055;-79
2021/09/16 04:54:49;;;;;;;2.75;0.60;;;;;;;16.11;100.00;100429.41;6375811;23;20553;-77
2021/09/16 04:57:19;;;;;;;1.35;0.52;;;;;;;16.04;100.00;100427.22;6376057;23;20329;-78
2021/09/16 04:59:49;;;;;;;1.98;0.63;;;;;;;15.94;100.00;100424.28;6375973;23;20024;-78
2021/09/16 05:02:20;;;;;;;0.77;0.50;;;;;;;16.05;100.00;100424.47;6469162;22;20027;-78
2021/09/16 05:04:50;;;;;;;1.63;0.60;;;;;;;16.00;100.00;100431.81;6468102;22;20006;-79
2021/09/16 05:07:22;;;;;;;2.75;0.80;;;;;;;16.06;100.00;100420.88;6469621;22;20005;-78
2021/09/16 05:09:52;;;;;;;2.45;0.68;;;;;;;15.96;100.00;100430.31;6464584;22;20151;-78
2021/09/16 05:12:22;;;;;;;0.75;0.40;;;;;;;15.77;100.00;100428.84;6371008;23;20033;-78
2021/09/16 05:14:53;;;;;;;1.77;0.52;;;;;;;15.95;100.00;100431.25;6371018;23;20437;-78
2021/09/16 05:17:24;;;;;;;1.73;0.52;;;;;;;15.98;100.00;100438.97;6464038;22;20016;-79
2021/09/16 05:19:55;;;;;;;2.80;0.50;;;;;;;16.04;100.00;100435.13;6373154;22;20049;-78
2021/09/16 05:22:25;;;;;;;7.88;0.75;;;;;;;16.04;100.00;100438.59;6376006;23;20452;-80
2021/09/16 05:24:55;;;;;;;2.17;0.68;;;;;;;16.02;100.00;100439.66;6376280;23;20406;-80
2021/09/16 05:27:26;;;;;;;1.52;0.55;;;;;;;16.16;100.00;100442.28;6469781;22;20005;-78
2021/09/16 05:29:56;;;;;;;2.13;0.55;;;;;;;16.13;100.00;100448.59;6468567;22;20314;-78
2021/09/16 05:32:27;;;;;;;2.08;0.60;;;;;;;15.84;100.00;100438.94;6468663;22;20012;-79
2021/09/16 05:34:58;;;;;;;1.02;0.50;;;;;;;16.08;100.00;100440.09;6374243;23;20356;-80
2021/09/16 05:37:30;;;;;;;1.58;0.60;;;;;;;15.98;100.00;100440.75;6467361;22;20234;-80
2021/09/16 05:40:00;;;;;;;2.40;0.50;;;;;;;16.21;100.00;100438.44;6470059;22;20013;-79
2021/09/16 05:42:31;;;;;;;1.63;0.80;;;;;;;16.05;100.00;100445.56;6376475;23;20057;-79
2021/09/16 05:45:01;;;;;;;1.48;0.60;;;;;;;16.20;100.00;100454.38;6465800;22;20071;-79
2021/09/16 05:47:31;;;;;;;1.65;0.30;;;;;;;16.27;100.00;100451.25;6375916;23;20053;-79
2021/09/16 05:50:02;;;;;;;3.35;0.60;;;;;;;16.18;100.00;100454.44;6375323;23;20008;-80
2021/09/16 05:52:32;;;;;;;0.75;0.40;;;;;;;16.24;100.00;100451.41;6468847;22;20322;-78
2021/09/16 05:55:05;;;;;;;3.33;0.30;;;;;;;16.36;100.00;100449.88;6467172;22;20009;-77
2021/09/16 05:57:35;;;;;;;1.33;0.47;;;;;;;16.36;100.00;100455.16;6468648;22;20045;-80
2021/09/16 06:00:08;;;;;;;1.10;0.50;;;;;;;16.34;100.00;100455.22;6375675;23;20002;-80
2021/09/16 06:02:38;;;;;;;2.30;0.47;;;;;;;16.34;100.00;100452.56;6376268;23;20027;-79
2021/09/16 06:05:09;;;;;;;1.73;0.40;;;;;;;16.44;100.00;100451.13;6469116;22;20088;-80
2021/09/16 06:07:39;;;;;;;1.42;0.50;;;;;;;16.25;100.00;100449.66;6469507;22;20013;-78
2021/09/16 06:10:09;;;;;;;2.15;0.40;;;;;;;16.51;100.00;100454.19;6468625;22;20029;-79
2021/09/16 06:12:40;;;;;;;2.88;0.80;;;;;;;16.50;100.00;100458.66;6467928;22;20050;-78
2021/09/16 06:15:11;;;;;;;1.50;0.52;;;;;;;16.61;100.00;100463.25;6375003;23;20013;-79
2021/09/16 06:17:41;;;;;;;1.05;0.60;;;;;;;16.56;100.00;100452.97;6468944;22;19997;-79
2021/09/16 06:20:12;;;;;;;1.00;0.50;;;;;;;16.69;100.00;100459.19;6375852;23;20005;-79
2021/09/16 06:22:46;;;;;;;0.75;0.40;;;;;;;16.75;100.00;100453.53;6376913;23;20001;-77
2021/09/16 06:25:16;;;;;;;1.88;0.50;;;;;;;16.56;100.00;100457.41;6375872;23;20188;-78
2021/09/16 06:27:47;;;;;;;2.53;0.70;;;;;;;16.49;100.00;100467.50;6468285;22;20025;-79
2021/09/16 06:30:17;;;;;;;0.93;0.52;;;;;;;16.43;100.00;100462.63;6468917;22;20159;-78
2021/09/16 06:32:48;;;;;;;1.02;0.50;;;;;;;16.74;100.00;100459.75;6470298;22;20098;-79
2021/09/16 06:35:20;;;;;;;2.25;0.50;;;;;;;17.04;100.00;100456.03;6469489;22;20012;-80
2021/09/16 06:37:50;;;;;;;1.48;0.50;;;;;;;17.17;100.00;100456.09;6378195;23;20013;-78
2021/09/16 06:40:20;;;;;;;1.35;0.50;;;;;;;17.42;100.00;100459.72;6469786;22;20437;-80
2021/09/16 06:42:51;;;;;;;1.42;0.50;;;;;;;17.12;100.00;100458.19;6376852;23;19997;-80
2021/09/16 06:45:21;;;;;;;2.63;0.50;;;;;;;17.17;100.00;100462.22;6377506;23;20248;-79
2021/09/16 06:47:51;;;;;;;2.40;0.60;;;;;;;17.21;100.00;100462.88;6469267;22;20051;-79
2021/09/16 06:50:22;;;;;;;1.53;0.50;;;;;;;17.38;100.00;100460.88;6469066;22;20044;-80
2021/09/16 06:52:52;;;;;;;1.17;0.60;;;;;;;17.31;100.00;100467.47;6468159;22;20256;-79
2021/09/16 06:55:22;;;;;;;3.67;0.70;;;;;;;17.36;100.00;100475.13;6468244;22;20016;-79
2021/09/16 06:57:53;;;;;;;2.53;0.70;;;;;;;17.37;100.00;100474.19;6468943;22;20002;-79
2021/09/16 07:00:23;;;;;;;1.75;0.50;;;;;;;17.47;100.00;100475.28;6376274;23;20002;-80
2021/09/16 07:02:53;;;;;;;1.70;0.50;;;;;;;17.19;100.00;100489.41;6469238;22;20008;-78
2021/09/16 07:05:24;;;;;;;1.10;0.50;;;;;;;17.15;100.00;100489.69;6467596;22;20006;-78
2021/09/16 07:07:54;;;;;;;1.17;0.50;;;;;;;17.36;99.24;100483.06;6377220;23;20024;-78
2021/09/16 07:10:24;;;;;;;1.85;0.57;;;;;;;17.52;99.66;100486.41;6375421;23;20002;-78
2021/09/16 07:12:54;;;;;;;2.92;0.60;;;;;;;17.38;98.76;100481.16;6468582;22;20009;-80
2021/09/16 07:15:25;;;;;;;3.88;0.70;;;;;;;17.35;98.81;100481.38;6468292;22;20001;-79
2021/09/16 07:17:55;;;;;;;1.77;0.63;;;;;;;17.34;98.77;100484.97;6468878;22;20055;-80
2021/09/16 07:20:26;;;;;;;2.10;0.32;;;;;;;17.12;98.15;100482.81;6375844;23;20025;-80
2021/09/16 07:22:56;;;;;;;2.60;0.50;;;;;;;17.20;99.20;100477.03;6467848;22;20258;-79
2021/09/16 07:25:27;;;;;;;1.15;0.40;;;;;;;17.32;96.35;100478.91;6466774;22;20008;-78
2021/09/16 07:27:57;;;;;;;1.58;0.52;;;;;;;17.35;98.02;100481.38;6376170;23;20009;-80
2021/09/16 07:30:27;;;;;;;1.75;0.40;;;;;;;17.42;98.73;100483.50;6374907;23;20012;-79
2021/09/16 07:32:58;;;;;;;2.60;0.35;;;;;;;17.69;97.39;100484.34;6375958;23;20002;-77
2021/09/16 07:35:28;;;;;;;1.95;0.40;;;;;;;17.80;96.42;100479.19;6374043;23;20009;-79
2021/09/16 07:37:58;;;;;;;1.17;0.32;;;;;;;17.72;93.95;100491.22;6375321;23;20348;-79
2021/09/16 07:40:29;;;;;;;2.17;0.30;;;;;;;18.31;92.90;100490.75;6467646;22;20008;-78
2021/09/16 07:43:03;;;;;;;2.95;0.50;;;;;;;18.52;90.59;100489.25;6467676;22;20044;-78
2021/09/16 07:45:33;;;;;;;1.67;0.38;;;;;;;18.93;88.38;100485.41;6467746;22;20002;-80
2021/09/16 07:48:04;;;;;;;4.07;0.50;;;;;;;19.43;85.20;100486.13;6374740;23;20047;-79
2021/09/16 07:50:34;;;;;;;1.27;0.40;;;;;;;20.95;81.77;100488.50;6468452;22;20308;-79
2021/09/16 07:53:05;;;;;;;1.33;0.32;;;;;;;20.50;81.74;100484.09;6468171;22;20005;-79
2021/09/16 07:55:36;;;;;;;1.02;0.40;;;;;;;21.25;77.75;100480.72;6374539;23;20341;-80
2021/09/16 07:58:06;;;;;;;0.50;0.30;;;;;;;22.59;74.17;100483.56;6468456;22;20002;-80
2021/09/16 08:00:36;;;;;;;2.20;0.40;;;;;;;22.78;70.98;100482.66;6375676;23;20011;-79
2021/09/16 08:03:06;;;;;;;1.65;0.43;;;;;;;24.44;67.20;100493.19;6376111;23;20006;-79
2021/09/16 08:05:37;;;;;;;1.37;0.40;;;;;;;24.89;66.17;100499.53;6468236;22;20456;-80
2021/09/16 08:08:07;;;;;;;1.77;0.33;;;;;;;23.03;71.45;100494.69;6468583;22;20249;-80
2021/09/16 08:10:37;;;;;;;1.30;0.43;;;;;;;21.80;76.22;100500.06;6468662;22;20264;-80
2021/09/16 08:13:08;;;;;;;0.80;0.20;;;;;;;21.21;77.28;100500.56;6468056;22;20009;-80
2021/09/16 08:15:38;;;;;;;2.90;0.40;;;;;;;20.04;81.37;100508.97;6468292;22;20006;-80
2021/09/16 08:18:08;;;;;;;1.60;0.40;;;;;;;19.41;84.02;100497.81;6466611;22;19997;-79
2021/09/16 08:20:45;;;;;;;2.33;0.50;;;;;;;19.16;86.31;100504.03;6468959;22;20077;-78
2021/09/16 08:23:17;;;;;;;1.35;0.25;;;;;;;18.93;88.22;100496.84;6376222;23;20002;-78
2021/09/16 08:25:48;;;;;;;4.82;0.57;;;;;;;19.29;86.41;100506.66;6468845;22;20349;-78
2021/09/16 08:28:19;;;;;;;1.95;0.30;;;;;;;20.35;81.21;100497.72;6376845;23;19997;-79
2021/09/16 08:30:50;;;;;;;3.38;0.60;;;;;;;20.42;81.46;100491.81;6469091;22;20024;-79
2021/09/16 08:33:21;;;;;;;2.08;0.20;;;;;;;21.02;77.22;100495.88;6376131;23;20057;-79
2021/09/16 08:35:51;;;;;;;1.45;0.40;;;;;;;20.74;79.81;100491.00;6375931;23;20085;-79
2021/09/16 08:38:21;;;;;;;2.38;0.40;;;;;;;21.82;75.65;100482.16;6377384;23;19997;-78
2021/09/16 08:40:52;;;;;;;1.27;0.40;;;;;;;21.25;76.80;100492.19;6470296;22;19998;-80
2021/09/16 08:43:29;;;;;;;2.63;0.30;;;;;;;22.58;74.58;100490.69;6376385;23;20076;-79
2021/09/16 08:46:00;;;;;;;2.47;0.43;;;;;;;22.41;73.59;100485.16;6377472;23;20001;-78
2021/09/16 08:48:31;;;;;;;0.73;0.40;;;;;;;24.02;71.57;100485.66;6470791;22;20012;-80
2021/09/16 08:51:02;;;;;;;0.82;0.40;;;;;;;23.05;72.54;100487.41;6365060;23;20013;-78
2021/09/16 08:53:32;;;;;;;1.15;0.40;;;;;;;22.41;74.42;100495.81;6376680;23;19998;-79
2021/09/16 08:56:05;;;;;;;2.42;0.40;;;;;;;21.93;74.52;100495.41;6469644;22;20151;-80
2021/09/16 08:58:37;;;;;;;2.60;0.55;;;;;;;21.23;78.06;100495.97;6469447;22;20013;-77
2021/09/16 09:01:07;;;;;;;1.55;0.35;;;;;;;22.14;75.40;100490.97;6470580;22;20009;-78
2021/09/16 09:03:38;;;;;;;1.77;0.40;;;;;;;22.68;74.04;100488.94;6375862;23;20080;-79
2021/09/16 09:06:42;;;;;;;1.58;0.45;;;;;;;23.56;69.99;100493.47;6468692;22;20421;-79
2021/09/16 09:09:14;;;;;;;1.92;0.43;;;;;;;23.16;72.22;100490.84;6403844;22;20013;-79
2021/09/16 09:12:07;;;;;;;2.60;0.57;;;;;;;22.47;73.23;100490.78;6470161;22;20009;-79
2021/09/16 09:14:40;;;;;;;2.15;0.30;;;;;;;21.50;76.80;100501.69;6468101;22;20010;-79
2021/09/16 09:17:30;;;;;;;0.95;0.38;;;;;;;20.56;80.31;100502.22;6469982;22;20035;-78
2021/09/16 09:20:08;;;;;;;1.10;0.45;;;;;;;19.91;83.93;100506.38;6469502;22;20072;-78
2021/09/16 09:22:41;;;;;;;1.05;0.40;;;;;;;19.78;84.84;100505.59;6376868;23;20005;-78
2021/09/16 09:25:13;;;;;;;2.03;0.40;;;;;;;19.53;84.88;100508.38;6373777;23;20016;-79
2021/09/16 09:27:52;;;;;;;1.00;0.30;;;;;;;19.14;86.48;100516.50;6464303;22;20089;-79
2021/09/16 09:30:27;;;;;;;2.55;0.45;;;;;;;18.71;88.15;100521.44;6371392;23;20602;-78
2021/09/16 09:33:00;;;;;;;1.35;0.45;;;;;;;18.54;89.87;100519.13;6464392;22;20040;-79
2021/09/16 09:35:36;;;;;;;1.63;0.60;;;;;;;18.60;91.60;100523.97;6371592;23;20321;-78
2021/09/16 09:38:17;;;;;;;2.95;0.50;;;;;;;18.33;92.19;100515.31;6464901;22;20009;-79
2021/09/16 09:40:50;;;;;;;1.45;0.43;;;;;;;18.41;93.55;100518.25;6369885;23;20076;-79
2021/09/16 09:43:25;;;;;;;5.15;0.80;;;;;;;17.86;97.66;100515.78;6464308;22;20529;-79
2021/09/16 09:46:06;;;;;;;2.47;0.40;;;;;;;17.93;98.01;100513.59;6370593;23;20008;-78
2021/09/16 09:48:43;;;;;;;2.47;0.50;;;;;;;18.06;98.08;100511.84;6464417;22;20002;-78
2021/09/16 09:51:14;;;;;;;3.80;0.93;;;;;;;18.01;97.59;100516.59;6464006;22;20009;-78
2021/09/16 09:53:45;;;;;;;1.60;0.50;;;;;;;17.99;96.47;100513.19;6368920;23;20005;-77
2021/09/16 09:56:18;;;;;;;2.25;0.60;;;;;;;18.10;97.72;100513.31;6369407;23;20005;-78
2021/09/16 09:58:48;;;;;;;2.08;0.85;;;;;;;18.01;97.10;100516.59;6370165;23;20061;-78
2021/09/16 10:01:36;;;;;;;1.85;0.70;;;;;;;18.28;96.20;100512.97;6369110;23;20025;-78
2021/09/16 10:04:26;;;;;;;2.03;0.65;;;;;;;18.33;97.42;100524.06;6369943;23;20433;-78
2021/09/16 10:06:59;;;;;;;3.53;0.88;;;;;;;18.30;97.13;100526.94;6370274;23;20024;-78
2021/09/16 10:09:29;;;;;;;2.33;0.70;;;;;;;18.31;98.46;100538.38;6368894;23;20130;-78
2021/09/16 10:12:00;;;;;;;1.95;0.85;;;;;;;18.49;97.88;100537.97;6462457;22;20048;-78
2021/09/16 10:14:30;;;;;;;3.83;0.80;;;;;;;18.63;96.87;100529.06;6462494;22;20020;-78
2021/09/16 10:17:00;;;;;;;1.95;0.70;;;;;;;18.88;94.60;100528.09;6368012;23;20005;-78
2021/09/16 10:19:31;;;;;;;2.45;0.90;;;;;;;19.12;94.17;100523.72;6369190;23;19994;-78
2021/09/16 10:22:01;;;;;;;2.10;0.70;;;;;;;19.63;91.98;100513.84;6369936;23;20029;-78
2021/09/16 10:24:32;;;;;;;2.33;0.80;;;;;;;19.71;90.99;100525.56;6369204;23;20032;-78
2021/09/16 10:27:03;;;;;;;1.90;0.68;;;;;;;19.77;91.16;100525.13;6369806;23;20009;-78
2021/09/16 10:29:36;;;;;;;2.72;0.73;;;;;;;19.12;90.85;100523.72;6371367;23;20005;-78
2021/09/16 10:32:06;;;;;;;4.15;0.90;;;;;;;19.05;92.46;100521.59;6371845;23;20005;-78
2021/09/16 10:34:39;;;;;;;3.67;0.77;;;;;;;19.13;93.68;100525.41;6463209;22;20479;-78
2021/09/16 10:37:20;;;;;;;4.30;0.90;;;;;;;19.14;94.43;100528.91;6370412;23;20187;-78
2021/09/16 10:39:51;;;;;;;3.95;0.82;;;;;;;18.88;94.07;100536.06;6370116;23;20005;-78
2021/09/16 10:43:07;;;;;;;3.65;0.70;;;;;;;18.73;95.39;100530.13;6463356;22;20002;-78
2021/09/16 10:45:40;;;;;;;2.55;0.77;;;;;;;18.89;95.10;100536.88;6360281;22;20002;-78
2021/09/16 10:48:17;;;;;;;1.85;1.08;;;;;;;18.55;94.23;100536.69;6358745;22;20057;-78
2021/09/16 10:50:50;;;;;;;2.95;0.95;;;;;;;18.82;93.53;100533.84;6367797;23;20016;-78
2021/09/16 10:53:40;;;;;;;2.58;0.90;;;;;;;19.05;92.04;100530.41;6368164;23;20029;-78
2021/09/16 10:56:26;;;;;;;3.03;1.10;;;;;;;19.07;93.97;100525.84;6460646;22;20013;-78
2021/09/16 10:58:58;;;;;;;3.83;1.23;;;;;;;19.67;92.42;100528.56;6369653;23;20047;-78
2021/09/16 11:01:50;;;;;;;3.40;1.05;;;;;;;19.60;89.78;100527.34;6461712;22;20601;-78
2021/09/16 11:04:21;;;;;;;2.17;0.90;;;;;;;19.18;91.29;100523.31;6368147;23;20045;-78
2021/09/16 11:06:52;;;;;;;2.20;0.95;;;;;;;18.67;94.04;100535.84;6367745;23;20036;-78
2021/09/16 11:09:28;;;;;;;1.95;0.80;;;;;;;18.52;96.53;100539.56;6460736;22;20001;-78
2021/09/16 11:12:03;;;;;;;2.17;0.98;;;;;;;18.20;99.03;100544.34;6367955;23;20005;-78
2021/09/16 11:14:40;;;;;;;2.78;1.15;;;;;;;18.04;100.00;100542.84;6368229;23;20005;-78
2021/09/16 11:17:11;;;;;;;2.38;1.10;;;;;;;18.20;100.00;100541.69;6368102;23;20059;-78
2021/09/16 11:19:47;;;;;;;1.83;1.15;;;;;;;18.50;100.00;100547.59;6460211;22;20005;-78
2021/09/16 11:22:22;;;;;;;3.78;1.17;;;;;;;18.98;97.84;100542.41;6368147;23;20023;-78
2021/09/16 11:24:55;;;;;;;2.83;1.10;;;;;;;19.32;95.17;100544.38;6459753;22;20006;-78
2021/09/16 11:27:32;;;;;;;2.75;1.20;;;;;;;19.66;92.31;100541.00;6369145;23;20039;-78
2021/09/16 11:30:04;;;;;;;1.67;1.00;;;;;;;19.53;90.31;100542.84;6368457;23;20004;-78
2021/09/16 11:32:37;;;;;;;3.92;1.13;;;;;;;19.50;88.07;100535.09;6368787;23;20009;-78
2021/09/16 11:35:10;;;;;;;2.13;0.93;;;;;;;19.39;89.97;100540.34;6368092;23;20027;-78
2021/09/16 11:37:45;;;;;;;2.20;0.90;;;;;;;19.63;90.02;100540.34;6461125;22;20433;-78
2021/09/16 11:40:18;;;;;;;;;;;;;;;19.77;89.72;100548.97;6369769;23;20002;-78